Time;durP1;ratioP1;P1;durP2;ratioP2;P2;SDS_P1;SDS_P2;PMS_P1;PMS_P2;Temp;Humidity;BMP_temperature;BMP_pressure;BME280_temperature;BME280_humidity;BME280_pressure;Samples;Min_cycle;Max_cycle;Signal;HPM_P1;HPM_P2
2021/12/26 00:01:27;;;;;;;58.35;36.30;;;;;;;6.68;77.99;100489.69;5073082;28;20049;-62
2021/12/26 00:03:54;;;;;;;61.03;36.85;;;;;;;6.69;77.89;100485.31;5072835;28;20491;-62
2021/12/26 00:06:28;;;;;;;61.40;36.72;;;;;;;6.68;78.11;100481.88;5074725;28;20478;-62
2021/12/26 00:08:57;;;;;;;54.97;35.95;;;;;;;6.72;78.20;100486.94;5073548;28;20044;-62
2021/12/26 00:11:24;;;;;;;60.13;37.95;;;;;;;6.73;77.74;100488.66;5074788;28;20555;-61
2021/12/26 00:13:54;;;;;;;56.53;36.28;;;;;;;6.75;78.03;100486.81;5074837;28;20102;-62
2021/12/26 00:16:21;;;;;;;60.78;37.88;;;;;;;6.69;77.94;100490.53;5074917;28;20399;-62
2021/12/26 00:18:48;;;;;;;62.28;37.45;;;;;;;6.68;78.04;100496.69;5073539;28;20094;-62
2021/12/26 00:21:18;;;;;;;59.78;38.20;;;;;;;6.67;78.24;100489.78;5074660;28;20098;-62
2021/12/26 00:23:45;;;;;;;60.95;37.60;;;;;;;6.68;78.07;100474.06;5074788;28;20045;-62
2021/12/26 00:26:14;;;;;;;61.45;37.95;;;;;;;6.66;77.89;100475.88;5073022;28;20048;-62
2021/12/26 00:28:40;;;;;;;57.60;36.55;;;;;;;6.65;78.14;100488.97;5074526;28;20044;-62
2021/12/26 00:31:07;;;;;;;60.30;37.05;;;;;;;6.65;78.24;100484.63;5074440;28;20040;-62
2021/12/26 00:33:34;;;;;;;59.65;36.78;;;;;;;6.66;78.18;100483.69;5074585;28;20040;-62
2021/12/26 00:36:01;;;;;;;57.45;35.85;;;;;;;6.61;78.40;100488.28;5073072;28;20510;-62
2021/12/26 00:38:28;;;;;;;58.83;36.28;;;;;;;6.60;78.18;100489.22;5074286;28;20048;-62
2021/12/26 00:40:55;;;;;;;59.17;37.45;;;;;;;6.53;78.17;100488.59;5074210;28;20045;-62
2021/12/26 00:43:22;;;;;;;58.65;36.38;;;;;;;6.53;78.43;100495.59;5074376;28;20105;-62
2021/12/26 00:45:48;;;;;;;63.10;37.22;;;;;;;6.53;78.40;100490.38;5074134;28;20551;-62
2021/12/26 00:48:15;;;;;;;61.55;35.92;;;;;;;6.52;78.20;100489.53;5074088;28;20052;-64
2021/12/26 00:50:42;;;;;;;60.88;36.47;;;;;;;6.56;77.98;100486.78;5072016;28;20040;-62
2021/12/26 00:53:09;;;;;;;60.67;37.28;;;;;;;6.56;77.94;100492.84;5073968;28;20098;-61
2021/12/26 00:55:36;;;;;;;53.47;35.35;;;;;;;6.45;78.16;100488.13;5074065;28;20048;-62
2021/12/26 00:58:04;;;;;;;51.00;33.60;;;;;;;6.51;78.14;100490.47;5073994;28;20094;-62
2021/12/26 01:00:34;;;;;;;53.72;33.92;;;;;;;6.48;78.05;100487.97;5074086;28;20387;-61
2021/12/26 01:03:04;;;;;;;51.38;33.22;;;;;;;6.47;78.22;100480.22;5073971;28;20048;-62
2021/12/26 01:05:33;;;;;;;51.03;33.55;;;;;;;6.47;78.28;100478.44;5072653;28;20045;-62
2021/12/26 01:08:02;;;;;;;56.55;32.85;;;;;;;6.44;77.86;100480.38;5073948;28;20041;-61
2021/12/26 01:10:34;;;;;;;52.75;31.83;;;;;;;6.33;78.23;100486.88;5073788;28;20040;-61
2021/12/26 01:13:12;;;;;;;52.17;32.75;;;;;;;6.38;78.24;100484.06;5073747;28;20045;-62
2021/12/26 01:15:39;;;;;;;51.40;32.35;;;;;;;6.40;78.07;100478.78;5073609;28;20080;-61
2021/12/26 01:18:05;;;;;;;56.65;33.08;;;;;;;6.33;78.34;100481.66;5073679;28;20044;-62
2021/12/26 01:23:07;;;;;;;60.65;33.42;;;;;;;6.29;78.24;100482.72;5072462;28;20110;-62
2021/12/26 01:25:33;;;;;;;60.97;33.15;;;;;;;6.32;78.14;100486.94;5073398;28;20044;-62
2021/12/26 01:28:00;;;;;;;48.00;31.58;;;;;;;6.40;78.18;100486.59;5073294;28;20045;-62
2021/12/26 01:30:27;;;;;;;53.40;33.30;;;;;;;6.41;78.07;100483.09;5073407;28;20045;-62
2021/12/26 01:32:53;;;;;;;56.35;35.08;;;;;;;6.34;77.90;100488.56;5073208;28;20048;-62
2021/12/26 01:35:20;;;;;;;58.05;34.60;;;;;;;6.35;78.18;100479.00;5073298;28;20045;-62
2021/12/26 01:37:47;;;;;;;58.25;33.60;;;;;;;6.30;78.11;100481.81;5072250;28;20067;-63
2021/12/26 01:40:15;;;;;;;51.72;33.70;;;;;;;6.32;78.26;100479.13;5071797;28;20101;-62
2021/12/26 01:42:43;;;;;;;53.65;32.05;;;;;;;6.29;78.17;100481.88;5073023;28;20049;-62
2021/12/26 01:45:11;;;;;;;59.60;34.00;;;;;;;6.29;78.18;100474.88;5072874;28;20098;-62
2021/12/26 01:47:38;;;;;;;76.22;34.22;;;;;;;6.27;78.01;100470.66;5072948;28;20048;-62
2021/12/26 01:50:07;;;;;;;57.10;32.45;;;;;;;6.29;78.12;100484.47;5072893;28;20094;-62
2021/12/26 01:52:34;;;;;;;59.60;32.65;;;;;;;6.31;78.10;100477.41;5072970;28;20120;-62
2021/12/26 01:55:21;;;;;;;60.30;33.45;;;;;;;6.33;78.06;100470.41;5072698;28;20551;-62
2021/12/26 01:57:50;;;;;;;61.28;32.90;;;;;;;6.27;78.08;100466.31;5071837;28;20367;-62
2021/12/26 02:00:17;;;;;;;56.60;34.17;;;;;;;6.33;78.21;100470.41;5072715;28;20501;-61
2021/12/26 02:02:43;;;;;;;75.40;33.85;;;;;;;6.34;77.79;100470.31;5072737;28;20132;-62
2021/12/26 02:05:10;;;;;;;58.58;33.55;;;;;;;6.30;78.17;100479.19;5072519;28;20563;-62
2021/12/26 02:07:37;;;;;;;63.42;34.08;;;;;;;6.27;77.95;100478.47;5072732;28;20098;-62
2021/12/26 02:10:04;;;;;;;61.50;33.42;;;;;;;6.23;78.35;100476.91;5072543;28;20044;-61
2021/12/26 02:12:31;;;;;;;74.57;35.22;;;;;;;6.21;78.30;100471.78;5072846;28;20095;-62
2021/12/26 02:14:57;;;;;;;59.90;35.10;;;;;;;6.19;78.32;100471.81;5071530;28;20486;-63
2021/12/26 02:17:25;;;;;;;78.18;34.50;;;;;;;6.16;78.43;100471.13;5072775;28;20113;-62
2021/12/26 02:19:54;;;;;;;59.38;34.78;;;;;;;6.17;78.41;100473.66;5072534;28;20070;-62
2021/12/26 02:22:28;;;;;;;63.72;36.45;;;;;;;6.19;78.39;100463.19;5072593;28;20048;-62
2021/12/26 02:27:42;;;;;;;59.97;37.42;;;;;;;6.25;78.22;100465.53;5072482;28;20102;-61
2021/12/26 02:30:16;;;;;;;52.83;33.92;;;;;;;6.30;78.29;100466.16;5071570;28;20099;-62
2021/12/26 02:32:49;;;;;;;59.60;34.95;;;;;;;6.26;78.30;100459.41;5072491;28;20098;-62
2021/12/26 02:35:16;;;;;;;57.33;34.35;;;;;;;6.29;78.47;100466.25;5072226;28;20106;-61
2021/12/26 02:37:43;;;;;;;69.68;34.42;;;;;;;6.20;78.04;100470.09;5072373;28;20044;-62
2021/12/26 02:40:11;;;;;;;72.18;35.05;;;;;;;6.23;78.04;100466.50;5072153;28;20048;-62
2021/12/26 02:42:37;;;;;;;62.22;34.05;;;;;;;6.20;78.24;100473.53;5072210;28;20110;-62
2021/12/26 02:45:05;;;;;;;75.72;36.08;;;;;;;6.21;78.19;100475.22;5072126;28;20052;-62
2021/12/26 02:47:41;;;;;;;56.42;35.28;;;;;;;6.24;78.06;100474.25;5071006;28;20124;-62
2021/12/26 02:50:12;;;;;;;56.92;35.15;;;;;;;6.26;78.20;100472.44;5072170;28;20461;-62
2021/12/26 02:52:39;;;;;;;56.63;34.00;;;;;;;6.28;77.95;100469.75;5072197;28;20041;-62
2021/12/26 02:55:08;;;;;;;53.75;34.17;;;;;;;6.27;78.00;100468.06;5071987;28;20052;-62
2021/12/26 02:57:35;;;;;;;65.10;33.53;;;;;;;6.25;78.02;100469.88;5072107;28;20067;-61
2021/12/26 03:00:11;;;;;;;64.50;34.55;;;;;;;6.27;77.96;100478.47;5072039;28;20080;-62
2021/12/26 03:02:54;;;;;;;61.30;34.13;;;;;;;6.26;77.93;100487.19;5072115;28;20486;-61
2021/12/26 03:05:25;;;;;;;67.45;32.47;;;;;;;6.24;77.92;100487.28;5070986;28;20541;-64
2021/12/26 03:07:52;;;;;;;62.30;32.97;;;;;;;6.19;77.89;100491.84;5072117;28;20651;-62
2021/12/26 03:10:25;;;;;;;53.78;32.17;;;;;;;6.23;78.08;100487.34;5071946;28;20044;-62
2021/12/26 03:12:56;;;;;;;67.20;32.47;;;;;;;6.19;78.05;100490.06;5071914;28;20482;-62
2021/12/26 03:15:24;;;;;;;63.85;33.58;;;;;;;6.18;78.01;100479.72;5071822;28;20479;-61
2021/12/26 03:17:51;;;;;;;55.47;32.70;;;;;;;6.18;78.00;100479.72;5071905;28;20427;-62
2021/12/26 03:20:26;;;;;;;61.25;32.22;;;;;;;6.09;78.16;100474.91;5070693;28;20045;-61
2021/12/26 03:22:53;;;;;;;52.08;31.73;;;;;;;6.02;78.23;100476.94;5071907;28;20044;-61
2021/12/26 03:25:22;;;;;;;68.32;31.48;;;;;;;6.04;78.14;100477.69;5071662;28;20556;-61
2021/12/26 03:27:50;;;;;;;66.85;32.45;;;;;;;6.07;77.82;100479.31;5071850;28;20098;-62
2021/12/26 03:30:23;;;;;;;61.63;30.75;;;;;;;5.98;77.94;100478.81;5071742;28;20098;-61
2021/12/26 03:32:52;;;;;;;60.40;29.60;;;;;;;5.94;77.97;100478.97;5071765;28;20040;-62
2021/12/26 03:35:20;;;;;;;57.38;30.73;;;;;;;5.98;78.04;100476.22;5070601;28;20083;-62
2021/12/26 03:37:47;;;;;;;47.75;30.00;;;;;;;5.95;77.96;100471.06;5071707;28;20049;-62
2021/12/26 03:40:13;;;;;;;59.10;29.50;;;;;;;5.94;77.73;100471.16;5071474;28;20052;-62
2021/12/26 03:42:41;;;;;;;46.83;29.27;;;;;;;5.96;77.72;100475.38;5071861;28;20048;-62
2021/12/26 03:45:24;;;;;;;50.08;27.95;;;;;;;5.85;77.79;100478.44;5071700;28;20059;-62
2021/12/26 03:47:51;;;;;;;51.97;27.38;;;;;;;5.78;77.94;100484.81;5071662;28;20052;-62
2021/12/26 03:50:21;;;;;;;44.15;26.95;;;;;;;5.72;77.79;100491.09;5071764;28;20045;-61
2021/12/26 03:52:51;;;;;;;52.67;26.20;;;;;;;5.65;78.11;100500.09;5070611;28;20052;-62
2021/12/26 03:55:18;;;;;;;40.35;26.48;;;;;;;5.70;78.08;100495.53;5071481;28;20048;-61
2021/12/26 03:57:45;;;;;;;46.63;27.08;;;;;;;5.68;77.93;100480.88;5071732;28;20056;-62
2021/12/26 04:00:14;;;;;;;47.45;27.55;;;;;;;5.64;78.02;100485.38;5072073;28;20189;-62
2021/12/26 04:02:45;;;;;;;52.63;28.05;;;;;;;5.64;77.82;100472.34;5072966;28;20044;-62
2021/12/26 04:05:13;;;;;;;42.22;25.85;;;;;;;5.67;77.65;100476.59;5071608;28;20453;-62
2021/12/26 04:07:41;;;;;;;42.55;28.55;;;;;;;5.62;77.98;100476.75;5071804;28;20094;-62
2021/12/26 04:10:09;;;;;;;59.28;27.50;;;;;;;5.69;77.87;100480.81;5070292;28;20098;-62
2021/12/26 04:12:37;;;;;;;45.08;28.25;;;;;;;5.67;77.25;100480.03;5071457;28;20044;-62
2021/12/26 04:15:07;;;;;;;49.33;30.30;;;;;;;5.71;77.58;100483.34;5071556;28;20048;-62
2021/12/26 04:17:34;;;;;;;46.55;28.83;;;;;;;5.76;77.43;100486.59;5071448;28;20076;-61
2021/12/26 04:20:01;;;;;;;43.83;27.80;;;;;;;5.77;77.53;100490.91;5071337;28;20548;-62
2021/12/26 04:22:27;;;;;;;62.42;28.67;;;;;;;5.76;77.19;100493.59;5071387;28;20102;-61
2021/12/26 04:24:54;;;;;;;47.67;29.23;;;;;;;5.75;77.52;100489.28;5071106;28;20430;-61
2021/12/26 04:27:24;;;;;;;49.80;29.83;;;;;;;5.76;77.42;100501.41;5070492;28;20044;-61
2021/12/26 04:29:51;;;;;;;49.72;29.60;;;;;;;5.80;77.53;100503.81;5071342;28;20098;-62
2021/12/26 04:32:18;;;;;;;50.40;29.63;;;;;;;5.85;77.23;100506.22;5071271;28;20098;-62
2021/12/26 04:34:45;;;;;;;48.80;30.08;;;;;;;5.79;77.23;100507.34;5071192;28;20098;-62
2021/12/26 04:37:12;;;;;;;55.53;29.33;;;;;;;5.80;77.43;100506.44;5071108;28;20569;-62
2021/12/26 04:39:39;;;;;;;51.38;29.50;;;;;;;5.82;77.14;100506.38;5070825;28;20053;-61
2021/12/26 04:42:06;;;;;;;51.97;29.20;;;;;;;5.85;77.23;100506.22;5070008;28;20090;-62
2021/12/26 04:44:33;;;;;;;48.22;30.55;;;;;;;5.86;77.26;100508.75;5070776;28;20049;-62
2021/12/26 04:46:59;;;;;;;50.65;30.98;;;;;;;5.88;77.21;100506.94;5070931;28;20097;-62
2021/12/26 04:49:26;;;;;;;57.58;31.42;;;;;;;5.90;77.35;100499.06;5070930;28;20095;-62
2021/12/26 04:51:52;;;;;;;49.85;31.02;;;;;;;5.92;77.22;100506.81;5070938;28;20479;-62
2021/12/26 04:54:19;;;;;;;47.70;29.75;;;;;;;5.92;77.17;100496.38;5070813;28;20052;-61
2021/12/26 04:56:46;;;;;;;49.08;31.08;;;;;;;5.93;77.13;100490.28;5070868;28;20406;-62
2021/12/26 04:59:12;;;;;;;53.72;31.42;;;;;;;5.95;77.02;100472.84;5069673;28;20056;-62
2021/12/26 05:01:39;;;;;;;56.80;31.67;;;;;;;5.93;76.97;100478.13;5070612;28;20970;-61
2021/12/26 05:04:06;;;;;;;57.08;32.10;;;;;;;5.93;77.17;100485.94;5070585;28;20096;-62
2021/12/26 05:06:33;;;;;;;54.08;32.42;;;;;;;5.95;76.92;100496.28;5070383;28;20091;-62
2021/12/26 05:08:59;;;;;;;64.25;32.42;;;;;;;5.92;76.95;100499.00;5070363;28;20055;-61
2021/12/26 05:11:26;;;;;;;48.67;30.63;;;;;;;5.93;77.21;100501.56;5070191;28;20098;-61
2021/12/26 05:13:53;;;;;;;51.97;32.33;;;;;;;5.93;76.94;100500.69;5069169;28;20391;-62
2021/12/26 05:16:22;;;;;;;56.45;31.55;;;;;;;5.96;77.13;100505.78;5070507;28;20114;-63
2021/12/26 05:18:49;;;;;;;55.75;32.33;;;;;;;5.97;77.05;100507.50;5070254;28;20490;-61
2021/12/26 05:21:15;;;;;;;53.55;33.38;;;;;;;5.98;77.22;100504.84;5070265;28;20098;-62
2021/12/26 05:23:42;;;;;;;56.30;33.25;;;;;;;6.00;76.98;100502.19;5069947;28;20102;-62
2021/12/26 05:26:08;;;;;;;53.55;33.75;;;;;;;5.95;77.04;100509.31;5070092;28;20052;-62
2021/12/26 05:28:35;;;;;;;51.05;32.72;;;;;;;5.94;76.93;100513.69;5070135;28;20044;-62
2021/12/26 05:31:02;;;;;;;52.05;31.25;;;;;;;5.84;76.95;100521.00;5068495;28;20079;-62
2021/12/26 05:33:28;;;;;;;52.65;32.83;;;;;;;5.86;77.19;100518.34;5070282;28;20048;-62
2021/12/26 05:35:55;;;;;;;57.90;32.25;;;;;;;5.90;77.06;100517.28;5069877;28;20563;-62
2021/12/26 05:38:23;;;;;;;56.15;33.00;;;;;;;5.86;77.28;100516.56;5069624;28;20057;-62
2021/12/26 05:40:49;;;;;;;53.70;33.03;;;;;;;5.85;77.13;100522.72;5069899;28;20045;-62
2021/12/26 05:43:16;;;;;;;67.78;34.88;;;;;;;5.83;76.85;100528.91;5070042;28;20048;-62
2021/12/26 05:45:42;;;;;;;52.38;32.22;;;;;;;5.79;77.39;100524.69;5069820;28;20068;-62
2021/12/26 05:48:09;;;;;;;55.88;34.33;;;;;;;5.81;77.28;100528.09;5068875;28;20056;-62
2021/12/26 05:50:36;;;;;;;61.53;34.08;;;;;;;5.76;77.49;100541.28;5069595;28;20103;-61
2021/12/26 05:53:02;;;;;;;58.45;34.03;;;;;;;5.72;77.42;100537.13;5069369;28;20478;-61
2021/12/26 05:55:31;;;;;;;61.05;35.05;;;;;;;5.77;77.36;100537.78;5069317;28;20490;-62
2021/12/26 05:57:58;;;;;;;52.65;33.63;;;;;;;5.80;77.22;100531.59;5069406;28;20097;-62
2021/12/26 06:00:24;;;;;;;58.33;34.53;;;;;;;5.84;77.30;100534.03;5069401;28;20105;-62
2021/12/26 06:02:54;;;;;;;57.78;35.08;;;;;;;5.87;77.27;100528.69;5068337;28;20429;-62
2021/12/26 06:05:27;;;;;;;61.50;36.08;;;;;;;5.89;77.13;100526.88;5069284;28;20056;-62
2021/12/26 06:07:56;;;;;;;61.13;35.13;;;;;;;5.89;77.33;100521.66;5069111;28;20052;-62
2021/12/26 06:10:23;;;;;;;58.70;34.35;;;;;;;5.92;77.10;100518.09;5069130;28;20048;-62
2021/12/26 06:12:49;;;;;;;59.03;34.47;;;;;;;5.95;77.26;100522.31;5069250;28;20478;-61
2021/12/26 06:15:16;;;;;;;60.45;35.13;;;;;;;5.98;77.17;100524.78;5069191;28;20074;-62
2021/12/26 06:17:43;;;;;;;66.20;36.80;;;;;;;6.00;77.04;100529.06;5069082;28;20101;-61
2021/12/26 06:20:14;;;;;;;62.63;35.92;;;;;;;6.00;77.02;100530.84;5068209;28;20123;-62
2021/12/26 06:22:45;;;;;;;61.72;34.95;;;;;;;5.99;77.06;100534.34;5068610;28;20106;-62
2021/12/26 06:25:14;;;;;;;62.10;36.25;;;;;;;6.03;77.03;100531.56;5068784;28;20117;-62
2021/12/26 06:27:40;;;;;;;64.40;36.63;;;;;;;6.01;76.98;100520.34;5068920;28;20053;-61
2021/12/26 06:30:09;;;;;;;59.20;33.92;;;;;;;6.01;77.04;100524.72;5068969;28;20052;-62
2021/12/26 06:32:36;;;;;;;63.90;35.72;;;;;;;6.06;77.10;100527.97;5069223;28;20074;-62
2021/12/26 06:35:04;;;;;;;66.25;35.40;;;;;;;6.03;77.05;100521.13;5067882;28;20044;-62
2021/12/26 06:37:31;;;;;;;60.78;34.95;;;;;;;6.00;76.99;100534.28;5069140;28;20449;-61
2021/12/26 06:39:59;;;;;;;65.40;33.92;;;;;;;6.01;76.98;100529.94;5068723;28;20049;-61
2021/12/26 06:42:28;;;;;;;65.10;35.30;;;;;;;6.01;77.15;100530.75;5068913;28;20048;-61
2021/12/26 06:44:54;;;;;;;63.22;35.30;;;;;;;6.00;77.10;100525.63;5068655;28;20457;-62
2021/12/26 06:47:22;;;;;;;60.03;33.75;;;;;;;6.03;77.31;100530.69;5068905;28;20044;-61
2021/12/26 06:49:49;;;;;;;58.65;31.80;;;;;;;6.01;77.28;100527.31;5068709;28;20045;-62
2021/12/26 06:52:16;;;;;;;58.55;32.45;;;;;;;6.03;77.13;100528.09;5067472;28;20456;-62
2021/12/26 06:54:42;;;;;;;58.55;32.53;;;;;;;6.03;76.99;100531.56;5068488;28;20435;-62
2021/12/26 06:57:09;;;;;;;57.92;32.10;;;;;;;6.05;77.02;100527.13;5068723;28;20076;-61
2021/12/26 06:59:35;;;;;;;53.30;31.35;;;;;;;6.03;77.16;100523.75;5068707;28;20045;-61
2021/12/26 07:02:02;;;;;;;59.55;32.80;;;;;;;6.03;77.06;100522.88;5068691;28;20048;-62
2021/12/26 07:04:29;;;;;;;58.08;33.10;;;;;;;6.02;77.01;100527.25;5068630;28;20090;-62
2021/12/26 07:06:56;;;;;;;52.17;32.03;;;;;;;6.04;76.86;100528.03;5068632;28;20091;-64
2021/12/26 07:09:22;;;;;;;54.35;31.95;;;;;;;6.06;76.91;100530.59;5067776;28;20102;-61
2021/12/26 07:11:53;;;;;;;49.90;31.02;;;;;;;6.05;76.95;100537.53;5068536;28;20114;-61
2021/12/26 07:14:20;;;;;;;55.65;31.23;;;;;;;6.08;76.81;100539.16;5068460;28;20052;-61
2021/12/26 07:16:47;;;;;;;52.28;32.45;;;;;;;6.09;77.00;100538.25;5068626;28;20495;-61
2021/12/26 07:19:13;;;;;;;53.10;32.70;;;;;;;6.09;76.79;100538.25;5067398;28;20127;-61
2021/12/26 07:21:41;;;;;;;52.80;31.58;;;;;;;6.10;76.75;100544.34;5068383;28;20486;-61
2021/12/26 07:24:08;;;;;;;56.53;33.58;;;;;;;6.08;76.81;100540.94;5068256;28;20095;-61
2021/12/26 07:26:36;;;;;;;55.28;31.55;;;;;;;6.10;76.86;100539.97;5067224;28;20092;-61
2021/12/26 07:29:03;;;;;;;48.92;31.63;;;;;;;6.10;76.62;100545.16;5068382;28;20086;-63
2021/12/26 07:31:29;;;;;;;48.03;29.33;;;;;;;6.07;76.90;100544.44;5068286;28;20090;-63
2021/12/26 07:33:57;;;;;;;47.13;29.17;;;;;;;6.09;76.68;100543.47;5068229;28;20482;-64
2021/12/26 07:36:26;;;;;;;48.45;29.70;;;;;;;6.10;76.74;100549.53;5070964;28;20048;-63
2021/12/26 07:38:53;;;;;;;51.45;30.40;;;;;;;6.07;76.36;100547.91;5071674;28;20067;-63
2021/12/26 07:41:21;;;;;;;49.67;30.17;;;;;;;6.03;76.64;100548.91;5072387;28;20079;-64
2021/12/26 07:43:47;;;;;;;48.00;29.95;;;;;;;6.02;76.69;100553.31;5071133;28;20457;-63
2021/12/26 07:46:15;;;;;;;48.78;29.63;;;;;;;6.04;76.48;100553.22;5071711;28;20053;-61
2021/12/26 07:48:42;;;;;;;43.42;29.00;;;;;;;6.08;76.30;100559.16;5072007;28;20059;-62
2021/12/26 07:51:08;;;;;;;46.10;29.73;;;;;;;6.10;76.36;100563.41;5071846;28;20102;-62
2021/12/26 07:53:35;;;;;;;48.40;29.33;;;;;;;6.13;76.41;100570.25;5072021;28;20045;-62
2021/12/26 07:56:02;;;;;;;58.90;34.00;;;;;;;6.13;76.25;100578.94;5071792;28;20482;-64
2021/12/26 07:58:29;;;;;;;56.22;33.00;;;;;;;6.15;76.10;100577.09;5070730;28;20517;-63
2021/12/26 08:00:55;;;;;;;62.80;34.83;;;;;;;6.16;76.02;100586.59;5071497;28;20044;-63
2021/12/26 08:03:22;;;;;;;62.88;35.00;;;;;;;6.16;76.23;100583.16;5072023;28;20054;-63
2021/12/26 08:05:49;;;;;;;54.05;32.03;;;;;;;6.15;76.26;100582.28;5071589;28;20548;-63
2021/12/26 08:08:16;;;;;;;55.75;32.35;;;;;;;6.16;76.18;100584.00;5071773;28;20056;-63
2021/12/26 08:10:42;;;;;;;54.50;32.67;;;;;;;6.16;76.17;100591.81;5071500;28;20094;-65
2021/12/26 08:13:09;;;;;;;54.00;32.83;;;;;;;6.16;76.06;100604.00;5071480;28;20054;-64
2021/12/26 08:15:36;;;;;;;56.30;33.92;;;;;;;6.12;76.10;100605.00;5071386;28;20067;-63
2021/12/26 08:18:02;;;;;;;55.55;33.22;;;;;;;6.10;76.19;100609.47;5070318;28;20045;-63
2021/12/26 08:20:29;;;;;;;58.42;33.60;;;;;;;6.12;76.23;100611.09;5071361;28;20078;-63
2021/12/26 08:22:57;;;;;;;58.42;34.78;;;;;;;6.13;75.72;100607.59;5071160;28;20098;-63
2021/12/26 08:25:24;;;;;;;56.25;32.97;;;;;;;6.18;75.99;100620.41;5071205;28;20102;-63
2021/12/26 08:27:50;;;;;;;50.97;32.00;;;;;;;6.17;76.06;100622.19;5071400;28;20044;-63
2021/12/26 08:30:17;;;;;;;50.70;30.13;;;;;;;6.13;76.09;100627.56;5071515;28;20049;-63
2021/12/26 08:32:44;;;;;;;54.90;32.63;;;;;;;6.19;76.03;100624.72;5070394;28;20037;-66
2021/12/26 08:35:11;;;;;;;51.95;30.92;;;;;;;6.17;75.90;100624.78;5070991;28;20098;-63
2021/12/26 08:37:38;;;;;;;52.88;31.33;;;;;;;6.19;75.80;100627.31;5071274;28;20445;-63
2021/12/26 08:40:06;;;;;;;52.03;31.88;;;;;;;6.19;75.72;100632.53;5070977;28;20653;-61
2021/12/26 08:42:32;;;;;;;50.00;30.13;;;;;;;6.20;75.83;100629.03;5071199;28;20090;-61
2021/12/26 08:45:00;;;;;;;55.05;31.98;;;;;;;6.21;75.89;100630.72;5070828;28;20073;-61
2021/12/26 08:47:27;;;;;;;53.65;31.50;;;;;;;6.23;75.72;100628.88;5070518;28;20044;-61
2021/12/26 08:49:54;;;;;;;48.90;30.48;;;;;;;6.24;75.68;100640.16;5069901;28;20461;-61
2021/12/26 08:52:20;;;;;;;53.25;32.40;;;;;;;6.23;75.65;100634.09;5070840;28;20465;-61
2021/12/26 08:54:47;;;;;;;49.92;31.52;;;;;;;6.25;75.59;100642.72;5070857;28;20121;-61
2021/12/26 08:57:15;;;;;;;51.08;31.42;;;;;;;6.26;75.74;100646.16;5070619;28;20070;-61
2021/12/26 08:59:42;;;;;;;52.22;32.28;;;;;;;6.30;75.71;100660.78;5073436;28;20509;-60
2021/12/26 09:02:09;;;;;;;48.10;31.00;;;;;;;6.30;75.57;100658.16;5070416;28;20231;-60
2021/12/26 09:04:38;;;;;;;54.17;30.90;;;;;;;6.32;75.67;100669.34;5069526;28;20102;-60
2021/12/26 09:07:06;;;;;;;49.75;29.55;;;;;;;6.33;75.51;100669.28;5070330;28;20109;-60
2021/12/26 09:09:34;;;;;;;46.10;28.15;;;;;;;6.32;75.62;100670.22;5070282;28;20048;-60
2021/12/26 09:12:01;;;;;;;48.42;28.70;;;;;;;6.36;75.60;100663.09;5079986;28;20040;-60
2021/12/26 09:14:31;;;;;;;48.60;29.35;;;;;;;6.38;75.52;100669.13;5085983;28;20123;-60
2021/12/26 09:16:59;;;;;;;49.53;30.73;;;;;;;6.39;75.29;100665.59;5072746;28;20048;-60
2021/12/26 09:19:28;;;;;;;51.28;31.40;;;;;;;6.38;75.46;100658.69;5070429;28;20102;-60
2021/12/26 09:21:56;;;;;;;52.55;31.58;;;;;;;6.40;75.40;100659.50;5069142;28;20048;-60
2021/12/26 09:24:23;;;;;;;53.58;32.45;;;;;;;6.41;75.31;100668.97;5070504;28;20122;-60
2021/12/26 09:26:50;;;;;;;57.50;32.58;;;;;;;6.45;75.52;100662.75;5070235;28;20056;-62
2021/12/26 09:29:17;;;;;;;62.63;38.47;;;;;;;6.64;74.51;100667.19;5070694;28;20545;-60
2021/12/26 09:31:44;;;;;;;54.88;33.25;;;;;;;6.59;75.33;100662.19;5069865;28;20090;-57
2021/12/26 09:34:10;;;;;;;58.05;35.58;;;;;;;6.57;75.12;100668.38;5060338;28;20460;-61
2021/12/26 09:36:38;;;;;;;50.53;32.20;;;;;;;6.58;75.40;100675.25;5065001;28;20040;-62
2021/12/26 09:39:05;;;;;;;51.97;31.52;;;;;;;6.56;75.26;100662.28;5069499;28;20086;-61
2021/12/26 09:41:32;;;;;;;57.33;34.50;;;;;;;6.55;75.49;100663.19;5069769;28;20483;-61
2021/12/26 09:43:59;;;;;;;52.72;32.40;;;;;;;6.53;75.51;100667.66;5069559;28;20041;-63
2021/12/26 09:46:31;;;;;;;57.75;33.80;;;;;;;6.77;75.00;100657.97;5069536;28;20052;-61
2021/12/26 09:48:58;;;;;;;52.75;30.90;;;;;;;6.70;75.31;100652.16;5069728;28;20094;-61
2021/12/26 09:51:26;;;;;;;51.50;31.40;;;;;;;6.70;75.31;100651.28;5069998;28;20094;-61
2021/12/26 09:53:54;;;;;;;47.47;30.58;;;;;;;6.72;75.50;100646.00;5068149;28;20049;-61
2021/12/26 09:56:21;;;;;;;50.38;31.25;;;;;;;6.68;75.27;100653.97;5069689;28;20041;-61
2021/12/26 09:59:03;;;;;;;49.90;29.33;;;;;;;6.71;75.00;100647.78;5068731;28;20098;-61
2021/12/26 10:01:40;;;;;;;50.90;32.08;;;;;;;6.66;75.37;100637.53;5069651;28;20044;-61
2021/12/26 10:04:26;;;;;;;51.00;32.25;;;;;;;6.61;75.31;100644.69;5069543;28;20060;-61
2021/12/26 10:06:57;;;;;;;52.25;32.05;;;;;;;6.60;75.45;100642.16;5069526;28;20126;-61
2021/12/26 10:09:24;;;;;;;51.67;30.45;;;;;;;6.59;75.52;100640.47;5068569;28;20075;-61
2021/12/26 10:11:53;;;;;;;51.20;31.77;;;;;;;6.58;75.31;100637.03;5069293;28;20044;-59
2021/12/26 10:14:23;;;;;;;48.08;29.60;;;;;;;6.56;75.52;100627.56;5069155;28;20044;-62
2021/12/26 10:16:53;;;;;;;53.20;30.67;;;;;;;6.55;75.51;100631.91;5069119;28;20134;-62
2021/12/26 10:19:20;;;;;;;52.85;30.92;;;;;;;6.56;75.59;100628.41;5069128;28;20123;-61
2021/12/26 10:21:57;;;;;;;54.72;31.70;;;;;;;6.58;75.61;100625.72;5068995;28;20453;-61
2021/12/26 10:24:27;;;;;;;47.15;30.13;;;;;;;6.57;75.60;100626.66;5068892;28;20052;-61
2021/12/26 10:26:58;;;;;;;51.45;32.47;;;;;;;6.59;75.59;100625.69;5067661;28;20094;-60
2021/12/26 10:29:34;;;;;;;47.05;30.23;;;;;;;6.66;75.69;100623.66;5068943;28;20075;-60
2021/12/26 10:32:24;;;;;;;47.47;27.95;;;;;;;6.78;75.17;100623.16;5068338;28;20098;-61
2021/12/26 10:34:54;;;;;;;49.85;30.00;;;;;;;6.88;74.88;100625.34;5068659;28;20518;-60
2021/12/26 10:37:23;;;;;;;50.10;31.55;;;;;;;6.92;75.03;100625.16;5069243;28;20056;-61
2021/12/26 10:39:53;;;;;;;97.30;62.33;;;;;;;6.89;74.84;100622.66;5068661;28;20056;-61
2021/12/26 10:42:25;;;;;;;111.13;67.65;;;;;;;6.93;74.88;100621.66;5069049;28;20048;-60
2021/12/26 10:44:54;;;;;;;50.53;31.30;;;;;;;6.94;74.92;100628.53;5067377;28;20048;-61
2021/12/26 10:47:23;;;;;;;45.95;30.00;;;;;;;6.93;74.91;100620.78;5069020;28;20048;-61
2021/12/26 10:49:54;;;;;;;35.90;22.13;;;;;;;7.61;74.21;100621.22;5068819;28;20122;-60
2021/12/26 10:52:29;;;;;;;44.38;24.52;;;;;;;8.45;72.97;100612.84;5068955;28;20554;-65
2021/12/26 10:55:03;;;;;;;48.10;27.15;;;;;;;8.94;73.05;100619.19;5068640;28;20513;-63
2021/12/26 10:57:33;;;;;;;45.65;26.27;;;;;;;9.26;73.21;100607.00;5068703;28;20060;-61
2021/12/26 11:00:04;;;;;;;43.67;27.50;;;;;;;8.99;73.01;100611.94;5067105;28;20041;-62
2021/12/26 11:02:36;;;;;;;43.58;26.48;;;;;;;8.56;73.08;100599.28;5068389;28;20047;-63
2021/12/26 11:05:13;;;;;;;41.25;26.83;;;;;;;8.26;73.54;100605.06;5067981;28;20498;-63
2021/12/26 11:07:44;;;;;;;44.35;27.45;;;;;;;8.12;73.56;100602.28;5068551;28;20052;-64
2021/12/26 11:10:17;;;;;;;47.15;29.63;;;;;;;8.07;73.64;100601.69;5071037;28;20040;-63
2021/12/26 11:12:50;;;;;;;49.47;28.98;;;;;;;8.00;73.56;100594.13;5072490;28;20053;-62
2021/12/26 11:15:19;;;;;;;45.17;28.17;;;;;;;7.91;73.77;100594.59;5072575;28;20040;-63
2021/12/26 11:17:49;;;;;;;47.40;29.45;;;;;;;7.77;73.88;100589.16;5071832;28;20045;-64
2021/12/26 11:20:26;;;;;;;50.13;29.67;;;;;;;7.81;73.77;100583.72;5052156;28;20063;-62
2021/12/26 11:22:53;;;;;;;47.47;30.42;;;;;;;7.92;73.56;100583.22;5052460;28;20045;-63
2021/12/26 11:25:22;;;;;;;53.35;32.63;;;;;;;7.95;73.55;100583.06;5052564;28;20041;-62
2021/12/26 11:27:50;;;;;;;54.85;33.15;;;;;;;8.07;73.30;100586.00;5052460;28;20099;-63